.
WxDataArchive / Data Records for 2010-07-23
2010-07-22 July 2010 2010-07-24

Data Records for Friday, 23 July 2010

Time	Temp	Chill	HIndex	Humid	Dewpt	 Wind 	HiWind	WindDir	Rain 	Barom 
-----	----	-----	------	-----	-----	------	------	-------	-----	----- 
00:00	78.8	78.8	82.1	84	73.5	0	2	338	0.00	29.896 
00:05	78.8	78.8	82.1	84	73.5	0	2	292	0.00	29.896 
00:10	79.0	79.0	82.5	84	73.7	1	4	292	0.00	29.896 
00:15	79.0	79.0	82.5	84	73.7	1	5	248	0.00	29.884 
00:20	79.0	79.0	82.5	84	73.7	1	5	270	0.00	29.884 
00:25	79.0	79.0	82.5	84	73.7	1	3	292	0.00	29.884 
00:30	79.0	79.0	82.5	84	73.7	1	4	315	0.00	29.874 
00:35	79.2	79.2	82.9	84	73.9	1	5	270	0.00	29.874 
00:40	79.2	79.2	82.9	84	73.9	0	4	270	0.00	29.874 
00:45	79.2	79.2	82.9	84	73.9	1	7	270	0.00	29.880 
00:50	79.2	79.2	82.9	84	73.9	1	3	292	0.00	29.880 
00:55	79.2	79.2	82.9	84	73.9	1	4	248	0.00	29.880 
01:00	79.2	79.2	82.9	84	73.9	1	4	248	0.00	29.886 
01:05	79.2	79.2	82.9	84	73.9	1	2	248	0.00	29.886 
01:10	79.0	79.0	82.5	84	73.7	1	4	248	0.00	29.886 
01:15	79.0	79.0	82.5	84	73.7	1	2	270	0.00	29.884 
01:20	78.8	78.8	82.1	85	73.9	1	4	248	0.00	29.884 
01:25	78.8	78.8	82.1	85	73.9	1	5	292	0.00	29.884 
01:30	78.8	78.8	82.1	85	73.9	1	3	270	0.00	29.880 
01:35	78.8	78.8	82.1	85	73.9	1	2	270	0.00	29.880 
01:40	78.8	78.8	82.2	86	74.2	1	3	225	0.00	29.880 
01:45	78.6	78.6	81.7	86	74.0	1	4	270	0.00	29.883 
01:50	78.6	78.6	81.7	86	74.0	1	4	270	0.00	29.883 
01:55	78.8	78.8	82.2	86	74.2	2	9	270	0.00	29.883 
02:00	78.8	78.8	82.2	86	74.2	1	4	248	0.00	29.880 
02:05	78.8	78.8	82.2	86	74.2	1	4	248	0.00	29.880 
02:10	78.6	78.6	81.8	87	74.4	1	3	248	0.00	29.880 
02:15	78.6	78.6	81.8	87	74.4	1	3	248	0.00	29.882 
02:20	78.6	78.6	81.8	87	74.4	1	5	248	0.00	29.882 
02:25	78.6	78.6	81.8	87	74.4	1	5	270	0.00	29.882 
02:30	78.6	78.6	81.8	87	74.4	1	3	270	0.00	29.872 
02:35	78.5	78.5	81.6	87	74.3	1	3	270	0.00	29.872 
02:40	78.5	78.5	81.6	88	74.6	1	4	225	0.00	29.872 
02:45	78.5	78.5	81.6	88	74.6	1	4	225	0.00	29.870 
02:50	78.5	78.5	81.6	88	74.6	1	9	225	0.00	29.870 
02:55	78.5	78.5	81.6	88	74.6	1	3	248	0.00	29.870 
03:00	78.6	78.6	81.9	88	74.7	1	5	270	0.00	29.870 
03:05	78.6	78.6	81.9	88	74.7	1	4	248	0.00	29.870 
03:10	78.6	78.6	81.9	88	74.7	0	2	248	0.00	29.870 
03:15	78.6	78.6	81.9	88	74.7	1	3	248	0.00	29.874 
03:20	78.6	78.6	81.9	88	74.7	1	5	248	0.00	29.874 
03:25	78.6	78.6	81.9	88	74.7	1	4	315	0.00	29.874 
03:30	78.8	78.8	82.3	88	74.9	1	3	292	0.00	29.869 
03:35	78.8	78.8	82.3	87	74.6	0	3	292	0.00	29.869 
03:40	78.8	78.8	82.3	88	74.9	1	4	248	0.00	29.869 
03:45	78.8	78.8	82.3	88	74.9	1	4	270	0.00	29.857 
03:50	78.8	78.8	82.3	88	74.9	1	4	248	0.00	29.857 
03:55	78.8	78.8	82.3	88	74.9	1	4	292	0.00	29.857 
04:00	79.2	79.2	83.2	87	75.0	2	4	270	0.00	29.854 
04:05	79.2	79.2	83.2	87	75.0	1	8	270	0.00	29.854 
04:10	79.2	79.2	83.2	87	75.0	1	4	248	0.00	29.854 
04:15	79.4	79.4	83.6	86	74.8	1	7	270	0.00	29.856 
04:20	79.4	79.4	83.6	86	74.8	2	5	270	0.00	29.856 
04:25	79.6	79.6	84.1	86	75.0	2	5	270	0.00	29.856 
04:30	79.8	79.8	84.4	85	74.9	1	4	270	0.00	29.853 
04:35	79.8	79.8	84.4	85	74.9	1	4	225	0.00	29.853 
04:40	79.8	79.8	84.4	85	74.9	1	3	270	0.00	29.853 
04:45	79.8	79.8	84.4	85	74.9	1	4	248	0.00	29.852 
04:50	79.8	79.8	84.4	85	74.9	1	5	248	0.00	29.852 
04:55	79.9	79.9	84.7	85	75.0	2	5	270	0.00	29.852 
05:00	79.9	79.9	84.5	84	74.6	1	4	248	0.00	29.840 
05:05	79.9	79.9	84.5	84	74.6	1	4	292	0.00	29.840 
05:10	79.8	79.8	84.4	85	74.9	1	3	225	0.00	29.840 
05:15	79.8	79.8	84.4	85	74.9	1	4	248	0.00	29.845 
05:20	79.9	79.9	84.5	84	74.6	2	4	270	0.00	29.845 
05:25	79.9	79.9	84.5	84	74.6	1	3	270	0.00	29.845 
05:30	79.8	79.8	84.3	84	74.5	1	4	270	0.00	29.846 
05:35	79.8	79.8	84.3	84	74.5	1	4	270	0.00	29.846 
05:40	79.8	79.8	84.3	84	74.5	1	3	248	0.00	29.846 
05:45	79.8	79.8	84.3	84	74.5	1	4	270	0.00	29.851 
05:50	79.8	79.8	84.3	84	74.5	1	3	292	0.00	29.851 
05:55	79.8	79.8	84.3	84	74.5	1	5	248	0.00	29.851 
06:00	79.8	79.8	84.3	84	74.5	2	5	248	0.00	29.855 
06:05	79.8	79.8	84.3	84	74.5	1	4	270	0.00	29.855 
06:10	79.8	79.8	84.3	84	74.5	2	5	270	0.00	29.855 
06:15	79.8	79.8	84.3	84	74.5	2	4	248	0.00	29.856 
06:20	79.8	79.8	84.3	84	74.5	1	4	248	0.00	29.856 
06:25	79.6	79.6	83.8	84	74.3	2	5	270	0.00	29.856 
06:30	79.6	79.6	83.8	84	74.3	1	4	248	0.00	29.857 
06:35	79.6	79.6	84.0	85	74.7	2	4	248	0.00	29.857 
06:40	79.6	79.6	83.8	84	74.3	2	5	270	0.00	29.857 
06:45	79.6	79.6	83.8	84	74.3	1	4	248	0.00	29.859 
06:50	79.4	79.4	83.4	84	74.1	2	5	270	0.00	29.859 
06:55	79.4	79.4	83.4	84	74.1	2	6	270	0.00	29.859 
07:00	79.6	79.6	83.8	84	74.3	1	4	270	0.00	29.855 
07:05	79.6	79.6	83.8	84	74.3	2	6	248	0.00	29.855 
07:10	79.6	79.6	83.8	84	74.3	2	6	270	0.00	29.855 
07:15	79.6	79.6	83.8	84	74.3	1	6	270	0.00	29.859 
07:20	79.6	79.6	83.8	84	74.3	1	4	270	0.00	29.859 
07:25	79.8	79.8	84.3	84	74.5	2	4	270	0.00	29.859 
07:30	79.9	79.9	84.4	83	74.3	3	7	270	0.00	29.867 
07:35	79.9	79.9	84.4	83	74.3	1	6	248	0.00	29.867 
07:40	80.1	80.1	84.9	83	74.5	2	5	270	0.00	29.867 
07:45	80.3	80.3	85.2	82	74.3	2	5	270	0.00	29.862 
07:50	80.5	80.5	85.6	82	74.5	1	4	270	0.00	29.862 
07:55	80.7	80.7	85.9	81	74.3	2	4	270	0.00	29.862 
08:00	80.9	80.9	86.4	81	74.5	2	5	270	0.00	29.864 
08:05	81.1	81.1	86.7	80	74.3	2	6	248	0.00	29.864 
08:10	81.4	81.4	87.1	79	74.2	3	5	270	0.00	29.864 
08:15	81.6	81.6	87.6	79	74.4	2	4	248	0.00	29.868 
08:20	81.8	81.8	87.8	78	74.2	2	5	270	0.00	29.868 
08:25	82.0	82.0	88.0	77	74.1	3	6	270	0.00	29.868 
08:30	82.4	82.4	89.0	77	74.4	3	7	248	0.00	29.858 
08:35	82.4	82.4	89.0	77	74.4	3	6	270	0.00	29.858 
08:40	82.6	82.6	89.4	77	74.6	2	4	270	0.00	29.858 
08:45	83.0	83.0	90.1	76	74.6	2	6	270	0.00	29.864 
08:50	83.2	83.2	90.3	75	74.4	3	9	270	0.00	29.864 
08:55	83.4	83.4	90.4	74	74.2	2	6	270	0.00	29.864 
09:00	83.8	83.8	91.3	74	74.6	3	6	270	0.00	29.866 
09:05	84.0	84.0	91.5	73	74.4	2	5	248	0.00	29.866 
09:10	84.3	84.3	92.2	73	74.7	2	6	270	0.00	29.866 
09:15	84.5	84.5	92.3	72	74.5	2	5	248	0.00	29.868 
09:20	84.9	84.9	92.8	71	74.4	2	4	270	0.00	29.868 
09:25	85.1	85.1	92.9	70	74.2	3	6	270	0.00	29.868 
09:30	85.1	85.1	93.3	71	74.6	2	6	270	0.00	29.869 
09:35	85.3	85.3	93.4	70	74.4	3	7	248	0.00	29.869 
09:40	85.5	85.5	93.9	70	74.6	2	7	270	0.00	29.869 
09:45	85.7	85.7	93.9	69	74.3	3	7	270	0.00	29.869 
09:50	85.7	85.7	93.9	69	74.3	3	6	270	0.00	29.869 
09:55	85.9	85.9	94.4	69	74.5	3	5	270	0.00	29.869 
10:00	86.1	86.1	94.9	69	74.7	3	6	270	0.00	29.868 
10:05	86.3	86.3	94.9	68	74.5	3	6	270	0.00	29.868 
10:10	86.5	86.5	94.9	67	74.2	3	7	270	0.00	29.868 
10:15	86.7	86.7	94.5	65	73.5	4	8	270	0.00	29.866 
10:20	87.2	87.2	95.7	65	74.0	3	6	270	0.00	29.866 
10:25	87.2	87.2	95.7	65	74.0	4	11	270	0.00	29.866 
10:30	87.6	87.6	96.1	64	73.9	3	5	270	0.00	29.866 
10:35	87.8	87.8	96.1	63	73.6	3	6	270	0.00	29.866 
10:40	87.8	87.8	96.1	63	73.6	4	7	270	0.00	29.866 
10:45	88.0	88.0	97.1	64	74.3	2	4	315	0.00	29.866 
10:50	88.2	88.2	96.5	62	73.5	3	11	270	0.00	29.866 
10:55	88.4	88.4	97.0	62	73.7	3	9	270	0.00	29.866 
11:00	88.8	88.8	97.9	62	74.1	3	6	270	0.00	29.867 
11:05	88.8	88.8	97.4	61	73.6	3	6	270	0.00	29.867 
11:10	89.0	89.0	97.9	61	73.8	3	6	270	0.00	29.867 
11:15	89.5	89.5	99.0	61	74.2	3	5	270	0.00	29.868 
11:20	89.3	89.3	98.0	60	73.6	4	7	270	0.00	29.868 
11:25	89.0	89.0	98.4	62	74.3	3	7	270	0.00	29.868 
11:30	89.3	89.3	98.6	61	74.0	3	7	270	0.00	29.867 
11:35	89.0	89.0	97.9	61	73.8	4	10	270	0.00	29.867 
11:40	89.0	89.0	97.9	61	73.8	5	10	270	0.00	29.867 
11:45	88.4	88.4	96.5	61	73.2	5	10	270	0.00	29.876 
11:50	88.6	88.6	97.0	61	73.4	4	9	270	0.00	29.876 
11:55	88.8	88.8	97.4	61	73.6	3	6	270	0.00	29.876 
12:00	88.6	88.6	97.0	61	73.4	4	6	270	0.00	29.867 
12:05	88.4	88.4	97.0	62	73.7	4	9	270	0.00	29.867 
12:10	88.8	88.8	97.4	61	73.6	4	8	270	0.00	29.867 
12:15	89.5	89.5	98.5	60	73.7	3	11	270	0.00	29.869 
12:20	89.9	89.9	98.9	59	73.6	3	8	270	0.00	29.869 
12:25	90.3	90.3	99.3	58	73.5	4	7	270	0.00	29.869 
12:30	90.3	90.3	99.3	58	73.5	3	9	248	0.00	29.872 
12:35	90.7	90.7	100.2	58	73.8	3	7	270	0.00	29.872 
12:40	90.7	90.7	99.6	57	73.3	3	9	270	0.00	29.872 
12:45	90.7	90.7	99.6	57	73.3	3	8	270	0.00	29.865 
12:50	91.0	91.0	100.9	58	74.1	3	13	248	0.00	29.865 
12:55	90.7	90.7	99.6	57	73.3	5	10	248	0.00	29.865 
13:00	90.5	90.5	98.6	56	72.6	4	9	270	0.00	29.866 
13:05	90.7	90.7	99.1	56	72.8	3	9	270	0.00	29.866 
13:10	91.4	91.4	101.3	57	74.0	3	7	270	0.00	29.866 
13:15	91.6	91.6	101.1	56	73.6	3	6	270	0.00	29.866 
13:20	91.6	91.6	100.5	55	73.1	3	6	248	0.00	29.866 
13:25	91.8	91.8	100.4	54	72.7	3	7	270	0.00	29.866 
13:30	91.8	91.8	101.6	56	73.8	3	6	270	0.00	29.863 
13:35	92.5	92.5	102.0	54	73.4	2	6	270	0.00	29.863 
13:40	92.5	92.5	101.4	53	72.8	4	9	270	0.00	29.863 
13:45	92.5	92.5	102.0	54	73.4	3	7	270	0.00	29.852 
13:50	92.9	92.9	100.5	50	71.5	3	6	270	0.00	29.852 
13:55	93.2	93.2	103.0	53	73.5	3	6	270	0.00	29.852 
14:00	93.2	93.2	103.0	53	73.5	3	6	270	0.00	29.850 
14:05	93.2	93.2	102.4	52	72.9	3	7	270	0.00	29.850 
14:10	92.9	92.9	102.9	54	73.8	3	7	270	0.00	29.850 
14:15	92.9	92.9	102.3	53	73.2	4	7	270	0.00	29.850 
14:20	93.2	93.2	103.0	53	73.5	3	9	248	0.00	29.850 
14:25	93.4	93.4	103.5	53	73.7	3	6	270	0.00	29.850 
14:30	93.6	93.6	103.3	52	73.3	3	6	270	0.00	29.848 
14:35	93.4	93.4	102.8	52	73.1	4	9	270	0.00	29.848 
14:40	93.6	93.6	103.3	52	73.3	3	6	270	0.00	29.848 
14:45	93.6	93.6	103.3	52	73.3	4	7	270	0.00	29.835 
14:50	93.4	93.4	104.1	54	74.2	3	7	270	0.00	29.835 
14:55	93.4	93.4	104.1	54	74.2	3	6	270	0.00	29.835 
15:00	93.4	93.4	103.5	53	73.7	3	9	270	0.00	29.833 
15:05	93.4	93.4	103.5	53	73.7	2	7	248	0.00	29.833 
15:10	93.8	93.8	104.4	53	74.0	3	7	270	0.00	29.833 
15:15	93.8	93.8	104.4	53	74.0	3	7	270	0.00	29.832 
15:20	93.6	93.6	103.9	53	73.8	2	5	270	0.00	29.832 
15:25	93.8	93.8	104.4	53	74.0	3	9	270	0.00	29.832 
15:30	93.6	93.6	103.9	53	73.8	3	7	270	0.00	29.834 
15:35	94.0	94.0	104.9	53	74.2	3	5	248	0.00	29.834 
15:40	94.3	94.3	104.9	52	73.9	3	7	270	0.00	29.834 
15:45	94.5	94.5	104.7	51	73.5	3	6	248	0.00	29.832 
15:50	94.3	94.3	104.3	51	73.3	4	7	270	0.00	29.832 
15:55	94.5	94.5	106.1	53	74.7	3	9	270	0.00	29.832 
16:00	94.3	94.3	104.3	51	73.3	4	8	248	0.00	29.837 
16:05	94.0	94.0	104.2	52	73.6	3	7	270	0.00	29.837 
16:10	93.8	93.8	104.4	53	74.0	3	7	270	0.00	29.837 
16:15	93.4	93.4	103.5	53	73.7	3	9	270	0.00	29.836 
16:20	92.9	92.9	102.3	53	73.2	3	6	270	0.00	29.836 
16:25	93.2	93.2	103.0	53	73.5	2	5	270	0.00	29.836 
16:30	93.4	93.4	102.8	52	73.1	2	6	270	0.00	29.832 
16:35	93.2	93.2	102.4	52	72.9	4	10	270	0.00	29.832 
16:40	92.7	92.7	101.8	53	73.0	3	9	270	0.00	29.832 
16:45	92.7	92.7	101.8	53	73.0	4	8	270	0.00	29.834 
16:50	92.9	92.9	102.3	53	73.2	2	6	270	0.00	29.834 
16:55	92.9	92.9	102.3	53	73.2	3	9	248	0.00	29.834 
17:00	93.2	93.2	103.0	53	73.5	2	5	270	0.00	29.834 
17:05	93.4	93.4	104.1	54	74.2	2	5	270	0.00	29.834 
17:10	93.2	93.2	103.7	54	74.0	2	6	270	0.00	29.834 
17:15	92.5	92.5	103.3	56	74.5	2	6	270	0.00	29.833 
17:20	92.1	92.1	102.3	56	74.1	1	4	270	0.00	29.833 
17:25	92.3	92.3	102.8	56	74.3	3	7	270	0.00	29.833 
17:30	92.3	92.3	102.2	55	73.7	3	6	270	0.00	29.832 
17:35	92.3	92.3	102.8	56	74.3	2	6	270	0.00	29.832 
17:40	91.8	91.8	101.6	56	73.8	3	7	270	0.00	29.832 
17:45	91.8	91.8	102.2	57	74.4	2	9	270	0.00	29.826 
17:50	91.6	91.6	101.7	57	74.2	1	4	270	0.00	29.826 
17:55	91.8	91.8	101.6	56	73.8	2	4	270	0.00	29.826 
18:00	91.8	91.8	101.6	56	73.8	2	6	270	0.00	29.824 
18:05	92.1	92.1	101.7	55	73.6	3	6	248	0.00	29.824 
18:10	92.3	92.3	102.8	56	74.3	2	5	270	0.00	29.824 
18:15	92.5	92.5	103.3	56	74.5	2	5	248	0.00	29.824 
18:20	92.3	92.3	102.8	56	74.3	3	7	270	0.00	29.824 
18:25	91.6	91.6	101.1	56	73.6	3	7	270	0.00	29.824 
18:30	91.4	91.4	101.3	57	74.0	3	6	248	0.00	29.831 
18:35	91.4	91.4	101.3	57	74.0	3	10	270	0.00	29.831 
18:40	91.4	91.4	101.3	57	74.0	2	7	270	0.00	29.831 
18:45	91.2	91.2	100.8	57	73.8	3	11	248	0.00	29.827 
18:50	91.0	91.0	100.3	57	73.6	4	9	270	0.00	29.827 
18:55	91.0	91.0	100.3	57	73.6	3	7	270	0.00	29.827 
19:00	90.7	90.7	99.6	57	73.3	3	6	270	0.00	29.823 
19:05	90.7	90.7	100.2	58	73.8	2	6	270	0.00	29.823 
19:10	90.5	90.5	100.3	59	74.2	2	6	270	0.00	29.823 
19:15	90.3	90.3	99.8	59	74.0	2	8	248	0.00	29.833 
19:20	90.3	90.3	99.8	59	74.0	2	9	270	0.00	29.833 
19:25	90.1	90.1	99.4	59	73.8	1	5	270	0.00	29.833 
19:30	89.9	89.9	99.4	60	74.1	3	7	270	0.00	29.834 
19:35	89.9	89.9	99.4	60	74.1	3	7	270	0.00	29.834 
19:40	89.9	89.9	100.0	61	74.6	3	6	270	0.00	29.834 
19:45	89.9	89.9	100.0	61	74.6	3	7	270	0.00	29.835 
19:50	89.7	89.7	99.5	61	74.4	3	7	270	0.00	29.835 
19:55	89.7	89.7	99.5	61	74.4	3	9	248	0.00	29.835 
20:00	89.7	89.7	99.5	61	74.4	3	6	270	0.00	29.834 
20:05	89.7	89.7	99.5	61	74.4	4	8	270	0.00	29.834 
20:10	89.5	89.5	99.6	62	74.7	3	7	270	0.00	29.834 
20:15	89.0	89.0	98.9	63	74.7	2	6	270	0.00	29.836 
20:20	89.0	89.0	98.9	63	74.7	2	5	270	0.00	29.836 
20:25	88.8	88.8	98.5	63	74.5	2	5	270	0.00	29.836 
20:30	88.6	88.6	98.5	64	74.8	3	7	270	0.00	29.846 
20:35	88.6	88.6	98.5	64	74.8	1	3	270	0.00	29.846 
20:40	88.2	88.2	98.0	65	74.9	2	5	270	0.00	29.846 
20:45	88.2	88.2	98.0	65	74.9	2	7	270	0.00	29.857 
20:50	88.0	88.0	97.6	65	74.7	2	5	270	0.00	29.857 
20:55	87.8	87.8	97.6	66	75.0	2	4	270	0.00	29.857 
21:00	87.8	87.8	97.6	66	75.0	2	4	270	0.00	29.852 
21:05	87.6	87.6	97.6	67	75.3	2	5	270	0.00	29.852 
21:10	87.6	87.6	97.6	67	75.3	2	4	248	0.00	29.852 
21:15	87.4	87.4	97.1	67	75.1	2	5	270	0.00	29.863 
21:20	87.4	87.4	97.1	67	75.1	1	4	270	0.00	29.863 
21:25	87.2	87.2	97.1	68	75.3	1	4	248	0.00	29.863 
21:30	87.2	87.2	97.1	68	75.3	1	4	248	0.00	29.876 
21:35	87.2	87.2	97.1	68	75.3	1	4	248	0.00	29.876 
21:40	87.0	87.0	96.6	68	75.1	2	5	292	0.00	29.876 
21:45	87.0	87.0	97.1	69	75.6	1	6	270	0.00	29.880 
21:50	87.0	87.0	97.1	69	75.6	1	4	248	0.00	29.880 
21:55	86.7	86.7	96.3	69	75.3	2	4	270	0.00	29.880 
22:00	86.7	86.7	96.3	69	75.3	1	7	270	0.00	29.883 
22:05	86.7	86.7	96.3	69	75.3	1	4	270	0.00	29.883 
22:10	86.5	86.5	96.3	70	75.5	1	4	270	0.00	29.883 
22:15	86.5	86.5	96.3	70	75.5	2	4	270	0.00	29.872 
22:20	86.3	86.3	95.8	70	75.3	2	6	270	0.00	29.872 
22:25	86.5	86.5	96.3	70	75.5	2	6	270	0.00	29.872 
22:30	86.3	86.3	95.8	70	75.3	2	6	225	0.00	29.878 
22:35	86.3	86.3	96.3	71	75.8	1	4	270	0.00	29.878 
22:40	85.9	85.9	93.6	67	73.6	3	7	270	0.00	29.878 
22:45	83.8	83.8	88.3	64	70.3	2	5	292	0.00	29.907 
22:50	82.4	82.4	86.7	68	70.8	1	3	338	0.00	29.907 
22:55	81.4	81.4	85.3	70	70.7	0	3	270	0.00	29.907 
23:00	80.9	80.9	84.6	71	70.6	0	1	270	0.00	29.901 
23:05	80.3	80.3	83.7	72	70.4	0	1	270	0.00	29.901 
23:10	79.8	79.8	83.2	75	71.1	0	1	270	0.00	29.901 
23:15	79.2	79.2	82.3	77	71.3	0	1	270	0.00	29.932 
23:20	78.8	78.8	81.7	78	71.3	0	1	270	0.00	29.932 
23:25	78.3	78.3	80.8	79	71.2	0	1	270	0.00	29.932 
23:30	78.1	78.1	80.5	81	71.8	0	1	270	0.00	29.948 
23:35	77.9	77.9	80.1	81	71.6	0	1	270	0.00	29.948 
23:40	77.7	77.7	79.8	81	71.4	0	1	270	0.00	29.948 
23:45	77.6	77.6	79.6	82	71.7	0	0	---	0.00	29.935 
23:50	77.4	77.4	79.2	83	71.8	0	1	270	0.00	29.935 
23:55	77.4	77.4	79.2	83	71.8	0	0	---	0.00	29.935 

CoCoRaHS
IN-AL-39
A2 Web Hosting
Creative Commons License
GoDaddy
search engine by freefind advanced

loaded 2018-11-15 05:22:26 • last modified 2010-11-18 10:43:29
Privacy PolicyDisclaimer
• wx.awcolley.com is powered by PmWiki v.2002016 •
• all content (unless otherwise noted) © 2018 A W Colley